createdAt,value
2024-02-01T00:00:32.188Z,97159.00
2024-02-01T00:01:32.180Z,97160.00
2024-02-01T00:02:32.347Z,97160.00
2024-02-01T00:03:32.297Z,97160.00
2024-02-01T00:04:32.375Z,97160.00
2024-02-01T00:05:32.527Z,97157.00
2024-02-01T00:06:32.662Z,97156.00
2024-02-01T00:07:32.532Z,97154.00
2024-02-01T00:08:32.618Z,97148.00
2024-02-01T00:09:32.660Z,97147.00
2024-02-01T00:10:32.741Z,97142.00
2024-02-01T00:11:32.793Z,97138.00
2024-02-01T00:12:32.838Z,97136.00
2024-02-01T00:13:32.913Z,97133.00
2024-02-01T00:14:33.101Z,97134.00
2024-02-01T00:15:33.034Z,97136.00
2024-02-01T00:16:33.177Z,97136.00
2024-02-01T00:17:33.272Z,97137.00
2024-02-01T00:18:33.300Z,97140.00
2024-02-01T00:19:33.476Z,97144.00
2024-02-01T00:20:33.410Z,97152.00
2024-02-01T00:21:33.444Z,97156.00
2024-02-01T00:23:33.589Z,97149.00
2024-02-01T00:24:33.638Z,97145.00
2024-02-01T00:25:33.738Z,97143.00
2024-02-01T00:26:33.836Z,97144.00
2024-02-01T00:27:33.853Z,97142.00
2024-02-01T00:28:33.935Z,97141.00
2024-02-01T00:29:34.050Z,97138.00
2024-02-01T00:30:34.054Z,97136.00
2024-02-01T00:31:34.197Z,97133.00
2024-02-01T00:32:34.344Z,97133.00
2024-02-01T00:33:34.454Z,97131.00
2024-02-01T00:34:34.384Z,97130.00
2024-02-01T00:35:34.447Z,97130.00
2024-02-01T00:36:34.471Z,97131.00
2024-02-01T00:37:34.543Z,97133.00
2024-02-01T00:38:34.627Z,97132.00
2024-02-01T00:39:34.693Z,97131.00
2024-02-01T00:40:34.763Z,97131.00
2024-02-01T00:41:35.047Z,97131.00
2024-02-01T00:42:34.940Z,97130.00
2024-02-01T00:43:34.983Z,97129.00
2024-02-01T00:44:35.110Z,97128.00
2024-02-01T00:45:35.120Z,97130.00
2024-02-01T00:46:35.181Z,97131.00
2024-02-01T00:47:35.522Z,97130.00
2024-02-01T00:48:35.468Z,97126.00
2024-02-01T00:49:35.583Z,97122.00
2024-02-01T00:50:35.511Z,97121.00
2024-02-01T00:51:35.540Z,97120.00
2024-02-01T00:52:35.621Z,97116.00
2024-02-01T00:53:35.716Z,97116.00
2024-02-01T00:54:35.753Z,97117.00
2024-02-01T00:55:35.831Z,97120.00
2024-02-01T00:56:35.914Z,97119.00
2024-02-01T00:57:35.970Z,97114.00
2024-02-01T00:58:36.022Z,97112.00
2024-02-01T00:59:36.201Z,97113.00
2024-02-01T01:00:36.251Z,97115.00
2024-02-01T01:01:36.274Z,97113.00
2024-02-01T01:02:36.315Z,97112.00
2024-02-01T01:03:36.364Z,97111.00
2024-02-01T01:04:36.522Z,97105.00
2024-02-01T01:05:36.552Z,97100.00
2024-02-01T01:06:36.568Z,97093.00
2024-02-01T01:07:36.651Z,97091.00
2024-02-01T01:08:36.746Z,97092.00
2024-02-01T01:09:36.770Z,97090.00
2024-02-01T01:10:36.853Z,97093.00
2024-02-01T01:11:36.944Z,97093.00
2024-02-01T01:12:36.996Z,97093.00
2024-02-01T01:13:37.035Z,97095.00
2024-02-01T01:14:37.143Z,97094.00
2024-02-01T01:15:37.176Z,97096.00
2024-02-01T01:16:37.259Z,97098.00
2024-02-01T01:17:37.421Z,97095.00
2024-02-01T01:18:37.505Z,97093.00
2024-02-01T01:19:37.484Z,97092.00
2024-02-01T01:20:37.576Z,97090.00
2024-02-01T01:21:37.612Z,97088.00
2024-02-01T01:22:37.693Z,97086.00
2024-02-01T01:23:37.822Z,97083.00
2024-02-01T01:24:37.827Z,97080.00
2024-02-01T01:25:37.829Z,97077.00
2024-02-01T01:26:37.877Z,97077.00
2024-02-01T01:27:37.914Z,97076.00
2024-02-01T01:28:37.981Z,97072.00
2024-02-01T01:29:38.023Z,97069.00
2024-02-01T01:30:38.074Z,97066.00
2024-02-01T01:31:38.107Z,97061.00
2024-02-01T01:32:38.222Z,97058.00
2024-02-01T01:33:38.484Z,97060.00
2024-02-01T01:34:38.258Z,97059.00
2024-02-01T01:35:38.320Z,97059.00
2024-02-01T01:36:38.327Z,97057.00
2024-02-01T01:37:38.435Z,97053.00
2024-02-01T01:38:38.422Z,97050.00
2024-02-01T01:39:38.419Z,97046.00
2024-02-01T01:40:38.465Z,97044.00
2024-02-01T01:41:38.507Z,97043.00
2024-02-01T01:42:38.530Z,97047.00
2024-02-01T01:43:38.582Z,97050.00
2024-02-01T01:44:38.641Z,97050.00
2024-02-01T01:45:38.643Z,97051.00
2024-02-01T01:46:38.750Z,97048.00
2024-02-01T01:47:38.782Z,97049.00
2024-02-01T01:48:38.929Z,97048.00
2024-02-01T01:49:38.853Z,97048.00
2024-02-01T01:50:38.894Z,97050.00
2024-02-01T01:51:38.892Z,97048.00
2024-02-01T01:52:38.936Z,97046.00
2024-02-01T01:53:39.041Z,97043.00
2024-02-01T01:54:39.040Z,97041.00
2024-02-01T01:55:39.084Z,97036.00
2024-02-01T01:56:39.283Z,97029.00
2024-02-01T01:57:39.213Z,97026.00
2024-02-01T01:58:39.255Z,97025.00
2024-02-01T01:59:39.313Z,97028.00
2024-02-01T02:00:39.325Z,97031.00
2024-02-01T02:01:39.344Z,97029.00
2024-02-01T02:02:39.426Z,97030.00
2024-02-01T02:03:39.594Z,97029.00
2024-02-01T02:04:39.490Z,97029.00
2024-02-01T02:05:39.604Z,97029.00
2024-02-01T02:06:39.669Z,97028.00
2024-02-01T02:07:39.588Z,97028.00
2024-02-01T02:08:39.685Z,97029.00
2024-02-01T02:09:39.658Z,97030.00
2024-02-01T02:10:39.737Z,97031.00
2024-02-01T02:11:39.779Z,97027.00
2024-02-01T02:12:39.819Z,97022.00
2024-02-01T02:13:39.869Z,97021.00
2024-02-01T02:14:39.923Z,97018.00
2024-02-01T02:15:39.945Z,97018.00
2024-02-01T02:16:40.139Z,97018.00
2024-02-01T02:17:40.250Z,97021.00
2024-02-01T02:18:40.165Z,97027.00
2024-02-01T02:19:40.207Z,97029.00
2024-02-01T02:20:40.210Z,97031.00
2024-02-01T02:21:40.218Z,97029.00
2024-02-01T02:22:40.248Z,97027.00
2024-02-01T02:23:40.348Z,97026.00
2024-02-01T02:24:40.319Z,97022.00
2024-02-01T02:25:40.364Z,97025.00
2024-02-01T02:26:40.448Z,97028.00
2024-02-01T02:27:40.444Z,97027.00
2024-02-01T02:28:40.506Z,97028.00
2024-02-01T02:29:40.599Z,97025.00
2024-02-01T02:30:40.665Z,97025.00
2024-02-01T02:31:40.707Z,97028.00
2024-02-01T02:32:40.987Z,97026.00
2024-02-01T02:33:40.999Z,97021.00
2024-02-01T02:34:40.939Z,97020.00
2024-02-01T02:35:41.022Z,97021.00
2024-02-01T02:36:41.062Z,97021.00
2024-02-01T02:37:41.112Z,97022.00
2024-02-01T02:38:41.196Z,97022.00
2024-02-01T02:39:41.228Z,97024.00
2024-02-01T02:40:41.293Z,97025.00
2024-02-01T02:41:41.405Z,97022.00
2024-02-01T02:42:41.394Z,97023.00
2024-02-01T02:43:41.422Z,97023.00
2024-02-01T02:44:41.513Z,97023.00
2024-02-01T02:45:41.524Z,97020.00
2024-02-01T02:46:41.604Z,97020.00
2024-02-01T02:47:41.682Z,97020.00
2024-02-01T02:48:41.829Z,97019.00
2024-02-01T02:49:41.831Z,97016.00
2024-02-01T02:50:41.840Z,97014.00
2024-02-01T02:51:41.890Z,97013.00
2024-02-01T02:52:41.871Z,97015.00
2024-02-01T02:53:41.927Z,97015.00
2024-02-01T02:54:41.947Z,97013.00
2024-02-01T02:55:41.993Z,97018.00
2024-02-01T02:56:42.113Z,97021.00
2024-02-01T02:57:42.072Z,97024.00
2024-02-01T02:58:42.111Z,97028.00
2024-02-01T02:59:42.154Z,97026.00
2024-02-01T03:00:42.197Z,97026.00
2024-02-01T03:01:42.203Z,97024.00
2024-02-01T03:02:42.446Z,97022.00
2024-02-01T03:03:42.516Z,97021.00
2024-02-01T03:04:42.320Z,97023.00
2024-02-01T03:05:42.409Z,97019.00
2024-02-01T03:06:42.417Z,97021.00
2024-02-01T03:07:42.378Z,97021.00
2024-02-01T03:08:42.533Z,97024.00
2024-02-01T03:09:42.430Z,97026.00
2024-02-01T03:10:42.489Z,97025.00
2024-02-01T03:11:42.517Z,97027.00
2024-02-01T03:12:42.494Z,97027.00
2024-02-01T03:13:42.523Z,97031.00
2024-02-01T03:14:42.566Z,97038.00
2024-02-01T03:15:42.542Z,97039.00
2024-02-01T03:16:42.560Z,97041.00
2024-02-01T03:17:43.046Z,97039.00
2024-02-01T03:18:42.765Z,97037.00
2024-02-01T03:19:42.701Z,97032.00
2024-02-01T03:20:42.711Z,97028.00
2024-02-01T03:21:42.666Z,97025.00
2024-02-01T03:22:42.666Z,97022.00
2024-02-01T03:23:42.750Z,97024.00
2024-02-01T03:24:42.685Z,97022.00
2024-02-01T03:25:42.691Z,97027.00
2024-02-01T03:26:42.736Z,97031.00
2024-02-01T03:27:42.705Z,97038.00
2024-02-01T03:28:42.754Z,97040.00
2024-02-01T03:29:42.812Z,97045.00
2024-02-01T03:30:42.721Z,97051.00
2024-02-01T03:31:42.786Z,97054.00
2024-02-01T03:32:42.788Z,97057.00
2024-02-01T03:33:42.851Z,97059.00
2024-02-01T03:34:42.749Z,97059.00
2024-02-01T03:35:42.839Z,97064.00
2024-02-01T03:36:42.774Z,97066.00
2024-02-01T03:37:42.762Z,97072.00
2024-02-01T03:38:42.788Z,97076.00
2024-02-01T03:39:42.813Z,97081.00
2024-02-01T03:40:42.814Z,97083.00
2024-02-01T03:41:42.906Z,97081.00
2024-02-01T03:42:42.866Z,97080.00
2024-02-01T03:43:42.897Z,97080.00
2024-02-01T03:44:42.974Z,97078.00
2024-02-01T03:45:45.122Z,97077.00
2024-02-01T03:46:42.988Z,97081.00
2024-02-01T03:47:43.096Z,97084.00
2024-02-01T03:48:43.161Z,97087.00
2024-02-01T03:49:43.203Z,97088.00
2024-02-01T03:50:43.197Z,97088.00
2024-02-01T03:51:43.190Z,97084.00
2024-02-01T03:52:43.237Z,97082.00
2024-02-01T03:53:43.392Z,97079.00
2024-02-01T03:54:43.329Z,97076.00
2024-02-01T03:55:43.395Z,97079.00
2024-02-01T03:56:43.561Z,97081.00
2024-02-01T03:57:45.262Z,97086.00
2024-02-01T03:58:43.545Z,97085.00
2024-02-01T03:59:43.621Z,97085.00
2024-02-01T04:00:43.681Z,97085.00
2024-02-01T04:01:43.671Z,97085.00
2024-02-01T04:02:43.723Z,97086.00
2024-02-01T04:03:43.755Z,97082.00
2024-02-01T04:04:43.762Z,97081.00
2024-02-01T04:05:43.859Z,97082.00
2024-02-01T04:06:43.879Z,97079.00
2024-02-01T04:07:43.840Z,97083.00
2024-02-01T04:08:43.892Z,97087.00
2024-02-01T04:09:44.867Z,97085.00
2024-02-01T04:10:43.938Z,97083.00
2024-02-01T04:11:44.006Z,97082.00
2024-02-01T04:12:44.053Z,97084.00
2024-02-01T04:13:44.099Z,97088.00
2024-02-01T04:14:44.238Z,97091.00
2024-02-01T04:15:44.224Z,97093.00
2024-02-01T04:16:44.295Z,97093.00
2024-02-01T04:17:44.372Z,97093.00
2024-02-01T04:18:44.553Z,97090.00
2024-02-01T04:19:44.483Z,97089.00
2024-02-01T04:20:44.634Z,97089.00
2024-02-01T04:21:44.597Z,97089.00
2024-02-01T04:22:44.655Z,97087.00
2024-02-01T04:23:44.731Z,97091.00
2024-02-01T04:24:44.773Z,97092.00
2024-02-01T04:25:44.911Z,97093.00
2024-02-01T04:26:44.885Z,97093.00
2024-02-01T04:27:45.014Z,97094.00
2024-02-01T04:28:44.993Z,97097.00
2024-02-01T04:29:45.078Z,97096.00
2024-02-01T04:30:45.123Z,97100.00
2024-02-01T04:31:45.168Z,97105.00
2024-02-01T04:32:45.291Z,97111.00
2024-02-01T04:33:45.411Z,97114.00
2024-02-01T04:34:45.402Z,97119.00
2024-02-01T04:35:45.502Z,97121.00
2024-02-01T04:36:45.542Z,97122.00
2024-02-01T04:37:45.585Z,97129.00
2024-02-01T04:38:45.678Z,97138.00
2024-02-01T04:39:45.736Z,97141.00
2024-02-01T04:40:52.985Z,97140.00
2024-02-01T04:41:53.028Z,97136.00
2024-02-01T04:42:53.209Z,97132.00
2024-02-01T04:43:53.003Z,97128.00
2024-02-01T04:44:53.041Z,97126.00
2024-02-01T04:45:53.080Z,97121.00
2024-02-01T04:46:53.090Z,97114.00
2024-02-01T04:47:53.279Z,97110.00
2024-02-01T04:48:53.357Z,97110.00
2024-02-01T04:49:53.314Z,97104.00
2024-02-01T04:50:53.373Z,97101.00
2024-02-01T04:51:53.379Z,97098.00
2024-02-01T04:52:53.412Z,97101.00
2024-02-01T04:53:53.539Z,97104.00
2024-02-01T04:54:53.514Z,97114.00
2024-02-01T04:55:53.629Z,97117.00
2024-02-01T04:56:53.638Z,97123.00
2024-02-01T04:57:53.677Z,97129.00
2024-02-01T04:58:53.744Z,97138.00
2024-02-01T04:59:53.834Z,97144.00
2024-02-01T05:00:53.897Z,97148.00
2024-02-01T05:01:54.022Z,97144.00
2024-02-01T05:02:54.078Z,97140.00
2024-02-01T05:03:54.125Z,97130.00
2024-02-01T05:04:54.107Z,97120.00
2024-02-01T05:05:54.339Z,97113.00
2024-02-01T05:06:54.433Z,97110.00
2024-02-01T05:07:54.293Z,97111.00
2024-02-01T05:08:54.392Z,97110.00
2024-02-01T05:09:54.374Z,97108.00
2024-02-01T05:10:54.412Z,97110.00
2024-02-01T05:11:54.531Z,97107.00
2024-02-01T05:12:54.516Z,97104.00
2024-02-01T05:13:54.569Z,97106.00
2024-02-01T05:14:54.645Z,97110.00
2024-02-01T05:15:54.615Z,97112.00
2024-02-01T05:16:54.627Z,97111.00
2024-02-01T05:17:54.730Z,97111.00
2024-02-01T05:18:54.783Z,97109.00
2024-02-01T05:19:54.725Z,97107.00
2024-02-01T05:20:54.753Z,97102.00
2024-02-01T05:21:54.725Z,97098.00
2024-02-01T05:22:54.744Z,97094.00
2024-02-01T05:23:54.757Z,97096.00
2024-02-01T05:24:54.775Z,97099.00
2024-02-01T05:25:54.832Z,97104.00
2024-02-01T05:26:54.883Z,97101.00
2024-02-01T05:27:54.911Z,97104.00
2024-02-01T05:28:54.978Z,97104.00
2024-02-01T05:29:55.047Z,97103.00
2024-02-01T05:30:55.099Z,97104.00
2024-02-01T05:31:55.162Z,97106.00
2024-02-01T05:32:56.506Z,97105.00
2024-02-01T05:33:55.411Z,97103.00
2024-02-01T05:34:55.332Z,97101.00
2024-02-01T05:35:55.492Z,97096.00
2024-02-01T05:36:55.471Z,97092.00
2024-02-01T05:37:55.565Z,97090.00
2024-02-01T05:38:55.632Z,97090.00
2024-02-01T05:39:55.680Z,97090.00
2024-02-01T05:40:55.816Z,97086.00
2024-02-01T05:41:55.872Z,97087.00
2024-02-01T05:42:55.867Z,97085.00
2024-02-01T05:43:55.934Z,97092.00
2024-02-01T05:44:56.020Z,97093.00
2024-02-01T05:45:56.079Z,97098.00
2024-02-01T05:46:56.162Z,97100.00
2024-02-01T05:47:56.292Z,97099.00
2024-02-01T05:49:56.612Z,97090.00
2024-02-01T05:50:56.421Z,97091.00
2024-02-01T05:51:56.457Z,97088.00
2024-02-01T05:52:56.476Z,97086.00
2024-02-01T05:53:56.609Z,97082.00
2024-02-01T05:54:56.567Z,97080.00
2024-02-01T05:55:56.588Z,97078.00
2024-02-01T05:56:56.631Z,97081.00
2024-02-01T05:57:56.648Z,97087.00
2024-02-01T05:58:56.713Z,97088.00
2024-02-01T05:59:56.770Z,97086.00
2024-02-01T06:00:56.843Z,97085.00
2024-02-01T06:01:56.809Z,97088.00
2024-02-01T06:02:56.839Z,97088.00
2024-02-01T06:03:56.866Z,97084.00
2024-02-01T06:04:57.010Z,97086.00
2024-02-01T06:05:57.013Z,97087.00
2024-02-01T06:06:57.033Z,97093.00
2024-02-01T06:07:57.048Z,97092.00
2024-02-01T06:08:57.122Z,97089.00
2024-02-01T06:09:57.126Z,97088.00
2024-02-01T06:10:57.169Z,97088.00
2024-02-01T06:11:57.183Z,97083.00
2024-02-01T06:12:57.214Z,97084.00
2024-02-01T06:13:57.229Z,97088.00
2024-02-01T06:14:57.333Z,97086.00
2024-02-01T06:15:57.301Z,97089.00
2024-02-01T06:16:57.324Z,97089.00
2024-02-01T06:17:57.403Z,97088.00
2024-02-01T06:18:57.475Z,97088.00
2024-02-01T06:19:57.501Z,97087.00
2024-02-01T06:20:57.503Z,97088.00
2024-02-01T06:21:57.522Z,97082.00
2024-02-01T06:22:57.604Z,97075.00
2024-02-01T06:23:57.730Z,97070.00
2024-02-01T06:24:57.756Z,97070.00
2024-02-01T06:25:57.800Z,97068.00
2024-02-01T06:26:57.878Z,97061.00
2024-02-01T06:27:59.003Z,97058.00
2024-02-01T06:28:58.006Z,97057.00
2024-02-01T06:29:58.096Z,97050.00
2024-02-01T06:30:58.157Z,97054.00
2024-02-01T06:31:58.198Z,97047.00
2024-02-01T06:32:58.302Z,97045.00
2024-02-01T06:33:58.344Z,97037.00
2024-02-01T06:34:58.416Z,97039.00
2024-02-01T06:35:58.414Z,97038.00
2024-02-01T06:36:58.458Z,97041.00
2024-02-01T06:37:58.475Z,97039.00
2024-02-01T06:38:58.554Z,97045.00
2024-02-01T06:39:58.699Z,97043.00
2024-02-01T06:40:58.703Z,97045.00
2024-02-01T06:41:58.780Z,97043.00
2024-02-01T06:42:58.706Z,97044.00
2024-02-01T06:43:58.748Z,97043.00
2024-02-01T06:44:58.896Z,97044.00
2024-02-01T06:45:58.824Z,97050.00
2024-02-01T06:46:58.882Z,97052.00
2024-02-01T06:47:58.967Z,97055.00
2024-02-01T06:48:58.909Z,97053.00
2024-02-01T06:49:58.889Z,97053.00
2024-02-01T06:50:59.426Z,97047.00
2024-02-01T06:51:58.996Z,97047.00
2024-02-01T06:52:59.241Z,97048.00
2024-02-01T06:54:00.363Z,97050.00
2024-02-01T06:54:59.207Z,97052.00
2024-02-01T06:55:59.392Z,97049.00
2024-02-01T06:56:59.172Z,97051.00
2024-02-01T06:57:59.128Z,97054.00
2024-02-01T06:58:59.189Z,97051.00
2024-02-01T06:59:59.141Z,97047.00
2024-02-01T07:00:59.164Z,97040.00
2024-02-01T07:01:59.124Z,97035.00
2024-02-01T07:02:59.241Z,97025.00
2024-02-01T07:03:59.331Z,97025.00
2024-02-01T07:04:59.178Z,97023.00
2024-02-01T07:05:59.290Z,97024.00
2024-02-01T07:06:59.197Z,97028.00
2024-02-01T07:07:59.188Z,97032.00
2024-02-01T07:08:59.199Z,97035.00
2024-02-01T07:10:00.208Z,97039.00
2024-02-01T07:10:59.162Z,97043.00
2024-02-01T07:11:59.190Z,97038.00
2024-02-01T07:12:59.166Z,97038.00
2024-02-01T07:13:59.161Z,97038.00
2024-02-01T07:14:59.231Z,97041.00
2024-02-01T07:15:59.161Z,97041.00
2024-02-01T07:16:59.177Z,97041.00
2024-02-01T07:17:59.321Z,97040.00
2024-02-01T07:18:59.235Z,97040.00
2024-02-01T07:19:59.258Z,97038.00
2024-02-01T07:21:00.661Z,97037.00
2024-02-01T07:21:59.176Z,97037.00
2024-02-01T07:22:59.185Z,97033.00
2024-02-01T07:23:59.214Z,97032.00
2024-02-01T07:24:59.189Z,97036.00
2024-02-01T07:25:59.176Z,97039.00
2024-02-01T07:26:59.217Z,97045.00
2024-02-01T07:28:00.166Z,97041.00
2024-02-01T07:28:59.200Z,97040.00
2024-02-01T07:29:59.232Z,97036.00
2024-02-01T07:30:59.263Z,97033.00
2024-02-01T07:31:59.220Z,97037.00
2024-02-01T07:32:59.253Z,97036.00
2024-02-01T07:33:59.395Z,97037.00
2024-02-01T07:34:59.228Z,97034.00
2024-02-01T07:35:59.244Z,97033.00
2024-02-01T07:36:59.261Z,97036.00
2024-02-01T07:37:59.228Z,97040.00
2024-02-01T07:38:59.261Z,97042.00
2024-02-01T07:39:59.249Z,97047.00
2024-02-01T07:40:59.277Z,97047.00
2024-02-01T07:41:59.308Z,97051.00
2024-02-01T07:42:59.318Z,97048.00
2024-02-01T07:43:59.363Z,97047.00
2024-02-01T07:44:59.394Z,97048.00
2024-02-01T07:45:59.329Z,97046.00
2024-02-01T07:46:59.353Z,97043.00
2024-02-01T07:47:59.674Z,97040.00
2024-02-01T07:48:59.551Z,97041.00
2024-02-01T07:49:59.545Z,97045.00
2024-02-01T07:50:59.487Z,97048.00
2024-02-01T07:51:59.412Z,97050.00
2024-02-01T07:52:59.432Z,97050.00
2024-02-01T07:53:59.517Z,97047.00
2024-02-01T07:54:59.493Z,97046.00
2024-02-01T07:55:59.544Z,97043.00
2024-02-01T07:56:59.580Z,97041.00
2024-02-01T07:57:59.597Z,97040.00
2024-02-01T07:58:59.608Z,97037.00
2024-02-01T07:59:59.665Z,97036.00
2024-02-01T08:00:59.654Z,97035.00
2024-02-01T08:01:59.612Z,97033.00
2024-02-01T08:02:59.716Z,97034.00
2024-02-01T08:03:59.772Z,97036.00
2024-02-01T08:04:59.799Z,97035.00
2024-02-01T08:05:59.913Z,97033.00
2024-02-01T08:07:00.051Z,97031.00
2024-02-01T08:07:59.944Z,97041.00
2024-02-01T08:09:00.090Z,97033.00
2024-02-01T08:10:01.203Z,97030.00
2024-02-01T08:11:00.101Z,97032.00
2024-02-01T08:12:00.177Z,97035.00
2024-02-01T08:13:00.167Z,97037.00
2024-02-01T08:14:00.189Z,97038.00
2024-02-01T08:15:00.342Z,97041.00
2024-02-01T08:16:00.283Z,97041.00
2024-02-01T08:17:00.300Z,97038.00
2024-02-01T08:18:00.496Z,97034.00
2024-02-01T08:19:00.480Z,97028.00
2024-02-01T08:20:00.466Z,97019.00
2024-02-01T08:21:00.764Z,97014.00
2024-02-01T08:22:00.567Z,97009.00
2024-02-01T08:23:00.670Z,97006.00
2024-02-01T08:24:00.697Z,97011.00
2024-02-01T08:25:01.881Z,97017.00
2024-02-01T08:26:00.724Z,97019.00
2024-02-01T08:27:00.775Z,97023.00
2024-02-01T08:28:00.784Z,97024.00
2024-02-01T08:29:00.761Z,97028.00
2024-02-01T08:30:00.784Z,97030.00
2024-02-01T08:31:00.730Z,97033.00
2024-02-01T08:32:00.729Z,97039.00
2024-02-01T08:33:00.850Z,97042.00
2024-02-01T08:34:00.930Z,97044.00
2024-02-01T08:35:00.823Z,97046.00
2024-02-01T08:36:02.396Z,97046.00
2024-02-01T08:37:00.745Z,97048.00
2024-02-01T08:38:00.741Z,97049.00
2024-02-01T08:39:00.777Z,97050.00
2024-02-01T08:40:00.749Z,97053.00
2024-02-01T08:41:00.752Z,97056.00
2024-02-01T08:42:00.771Z,97058.00
2024-02-01T08:43:00.787Z,97058.00
2024-02-01T08:44:00.752Z,97058.00
2024-02-01T08:45:00.781Z,97057.00
2024-02-01T08:46:00.767Z,97055.00
2024-02-01T08:47:00.776Z,97053.00
2024-02-01T08:48:00.855Z,97049.00
2024-02-01T08:49:00.935Z,97043.00
2024-02-01T08:50:00.803Z,97044.00
2024-02-01T08:51:00.823Z,97044.00
2024-02-01T08:52:00.759Z,97041.00
2024-02-01T08:53:00.795Z,97037.00
2024-02-01T08:54:00.827Z,97034.00
2024-02-01T08:55:00.918Z,97035.00
2024-02-01T08:56:00.758Z,97037.00
2024-02-01T08:57:00.834Z,97042.00
2024-02-01T08:58:00.767Z,97046.00
2024-02-01T08:59:00.773Z,97050.00
2024-02-01T09:00:00.795Z,97051.00
2024-02-01T09:01:00.850Z,97056.00
2024-02-01T09:02:00.753Z,97061.00
2024-02-01T09:03:00.859Z,97064.00
2024-02-01T09:04:00.838Z,97064.00
2024-02-01T09:05:00.883Z,97066.00
2024-02-01T09:06:00.886Z,97063.00
2024-02-01T09:07:00.889Z,97062.00
2024-02-01T09:08:00.808Z,97066.00
2024-02-01T09:09:00.913Z,97067.00
2024-02-01T09:10:02.732Z,97069.00
2024-02-01T09:11:01.786Z,97068.00
2024-02-01T09:12:01.127Z,97067.00
2024-02-01T09:13:08.695Z,97066.00
2024-02-01T09:14:08.663Z,97065.00
2024-02-01T09:15:08.724Z,97068.00
2024-02-01T09:16:08.671Z,97069.00
2024-02-01T09:17:08.690Z,97070.00
2024-02-01T09:18:08.837Z,97071.00
2024-02-01T09:19:09.062Z,97067.00
2024-02-01T09:20:08.723Z,97065.00
2024-02-01T09:21:08.689Z,97065.00
2024-02-01T09:22:08.669Z,97066.00
2024-02-01T09:23:08.680Z,97064.00
2024-02-01T09:24:08.739Z,97065.00
2024-02-01T09:25:08.733Z,97065.00
2024-02-01T09:26:08.804Z,97068.00
2024-02-01T09:27:10.608Z,97075.00
2024-02-01T09:28:08.827Z,97077.00
2024-02-01T09:29:08.836Z,97083.00
2024-02-01T09:30:08.885Z,97087.00
2024-02-01T09:31:08.839Z,97094.00
2024-02-01T09:32:08.844Z,97098.00
2024-02-01T09:33:08.987Z,97099.00
2024-02-01T09:34:08.940Z,97099.00
2024-02-01T09:35:08.863Z,97101.00
2024-02-01T09:36:08.885Z,97105.00
2024-02-01T09:37:08.857Z,97105.00
2024-02-01T09:38:08.854Z,97104.00
2024-02-01T09:39:08.896Z,97105.00
2024-02-01T09:40:08.872Z,97106.00
2024-02-01T09:41:08.878Z,97109.00
2024-02-01T09:42:08.886Z,97107.00
2024-02-01T09:43:08.856Z,97112.00
2024-02-01T09:44:08.880Z,97114.00
2024-02-01T09:45:08.904Z,97116.00
2024-02-01T09:46:08.879Z,97115.00
2024-02-01T09:47:08.892Z,97121.00
2024-02-01T09:48:09.025Z,97124.00
2024-02-01T09:49:14.977Z,97126.00
2024-02-01T09:50:09.922Z,97132.00
2024-02-01T09:51:08.927Z,97133.00
2024-02-01T09:52:08.877Z,97134.00
2024-02-01T09:53:09.946Z,97135.00
2024-02-01T09:54:08.904Z,97138.00
2024-02-01T09:55:08.888Z,97137.00
2024-02-01T09:56:08.879Z,97137.00
2024-02-01T09:57:08.931Z,97130.00
2024-02-01T09:58:08.889Z,97126.00
2024-02-01T09:59:08.937Z,97122.00
2024-02-01T10:00:08.995Z,97114.00
2024-02-01T10:01:09.060Z,97107.00
2024-02-01T10:02:09.086Z,97104.00
2024-02-01T10:03:09.222Z,97101.00
2024-02-01T10:04:09.293Z,97099.00
2024-02-01T10:05:09.293Z,97096.00
2024-02-01T10:06:09.514Z,97095.00
2024-02-01T10:07:09.503Z,97093.00
2024-02-01T10:08:09.500Z,97096.00
2024-02-01T10:09:09.551Z,97093.00
2024-02-01T10:10:09.595Z,97093.00
2024-02-01T10:11:09.640Z,97092.00
2024-02-01T10:12:09.773Z,97091.00
2024-02-01T10:13:09.710Z,97091.00
2024-02-01T10:14:09.739Z,97094.00
2024-02-01T10:15:11.004Z,97098.00
2024-02-01T10:16:09.833Z,97103.00
2024-02-01T10:17:09.892Z,97107.00
2024-02-01T10:18:10.044Z,97108.00
2024-02-01T10:19:10.342Z,97113.00
2024-02-01T10:20:10.019Z,97112.00
2024-02-01T10:21:10.058Z,97110.00
2024-02-01T10:22:10.326Z,97104.00
2024-02-01T10:23:10.142Z,97100.00
2024-02-01T10:24:10.285Z,97098.00
2024-02-01T10:25:10.223Z,97097.00
2024-02-01T10:26:10.308Z,97098.00
2024-02-01T10:27:10.349Z,97093.00
2024-02-01T10:28:10.384Z,97086.00
2024-02-01T10:29:10.443Z,97080.00
2024-02-01T10:30:10.533Z,97075.00
2024-02-01T10:31:10.516Z,97074.00
2024-02-01T10:32:10.533Z,97075.00
2024-02-01T10:33:10.680Z,97078.00
2024-02-01T10:34:10.779Z,97084.00
2024-02-01T10:35:10.669Z,97088.00
2024-02-01T10:36:11.236Z,97089.00
2024-02-01T10:37:10.710Z,97092.00
2024-02-01T10:38:10.765Z,97090.00
2024-02-01T10:39:10.818Z,97092.00
2024-02-01T10:40:10.838Z,97092.00
2024-02-01T10:41:10.868Z,97088.00
2024-02-01T10:42:10.952Z,97084.00
2024-02-01T10:43:10.960Z,97082.00
2024-02-01T10:44:10.938Z,97082.00
2024-02-01T10:45:11.080Z,97079.00
2024-02-01T10:46:10.993Z,97077.00
2024-02-01T10:47:10.985Z,97074.00
2024-02-01T10:48:11.116Z,97073.00
2024-02-01T10:49:11.183Z,97077.00
2024-02-01T10:50:11.055Z,97075.00
2024-02-01T10:51:11.292Z,97074.00
2024-02-01T10:52:11.152Z,97067.00
2024-02-01T10:53:11.174Z,97062.00
2024-02-01T10:54:11.265Z,97058.00
2024-02-01T10:55:11.421Z,97060.00
2024-02-01T10:56:11.285Z,97060.00
2024-02-01T10:57:11.397Z,97062.00
2024-02-01T10:58:11.341Z,97063.00
2024-02-01T10:59:11.363Z,97060.00
2024-02-01T11:00:11.445Z,97058.00
2024-02-01T11:01:11.468Z,97056.00
2024-02-01T11:02:11.434Z,97060.00
2024-02-01T11:03:11.490Z,97059.00
2024-02-01T11:04:11.581Z,97061.00
2024-02-01T11:05:11.558Z,97063.00
2024-02-01T11:06:11.696Z,97062.00
2024-02-01T11:07:11.717Z,97059.00
2024-02-01T11:08:11.681Z,97056.00
2024-02-01T11:09:11.751Z,97054.00
2024-02-01T11:10:11.712Z,97054.00
2024-02-01T11:11:11.783Z,97050.00
2024-02-01T11:12:11.864Z,97046.00
2024-02-01T11:13:11.872Z,97044.00
2024-02-01T11:14:11.927Z,97042.00
2024-02-01T11:15:11.985Z,97042.00
2024-02-01T11:16:12.055Z,97040.00
2024-02-01T11:17:12.047Z,97039.00
2024-02-01T11:18:12.331Z,97038.00
2024-02-01T11:19:12.280Z,97042.00
2024-02-01T11:20:12.299Z,97042.00
2024-02-01T11:21:12.160Z,97040.00
2024-02-01T11:22:12.199Z,97040.00
2024-02-01T11:23:12.154Z,97040.00
2024-02-01T11:24:12.320Z,97041.00
2024-02-01T11:25:12.211Z,97042.00
2024-02-01T11:26:12.181Z,97042.00
2024-02-01T11:27:12.189Z,97042.00
2024-02-01T11:28:12.187Z,97043.00
2024-02-01T11:29:12.189Z,97044.00
2024-02-01T11:30:12.223Z,97044.00
2024-02-01T11:31:18.557Z,97042.00
2024-02-01T11:32:13.396Z,97040.00
2024-02-01T11:33:12.346Z,97037.00
2024-02-01T11:34:12.417Z,97035.00
2024-02-01T11:35:12.223Z,97034.00
2024-02-01T11:36:12.283Z,97034.00
2024-02-01T11:37:12.206Z,97032.00
2024-02-01T11:38:12.249Z,97030.00
2024-02-01T11:39:12.273Z,97026.00
2024-02-01T11:40:12.266Z,97026.00
2024-02-01T11:41:12.313Z,97020.00
2024-02-01T11:42:20.585Z,97023.00
2024-02-01T11:43:13.344Z,97020.00
2024-02-01T11:44:12.394Z,97015.00
2024-02-01T11:45:12.386Z,97011.00
2024-02-01T11:46:12.379Z,97011.00
2024-02-01T11:47:12.368Z,97011.00